Brjansk, Russia
Current Conditions -  °F | °C
As of 2:00 AM on Saturday 25 Oct 2014 (Local Time) from UUBP Reporting Station
Clear Clear  
Wind Chill: 11°   Ceiling: Unl
Heat Index: 18°   Visibility: 6mi
Dew Point: 14°   Wind: 4mph
Humidity: 86%   Direction: 30°NNE
Pressure: 30.62"   Gusts: NA
Location:  53.26°N, 34.42°E
Report Text: UUBP 242300Z 03002MPS CAVOK M08/M10 Q1037 NOSIG RMK QFE76034CLRD70
Loading
Personal Weather Stations






























Interactive Weather Map
Tropical Storm Tracking
New forecast layout! Learn more

10-Day Weather Forecast

Advertisements
Track Severe Weather on mobile